createdAt,value
2018-01-08T00:02:57.113Z,92.24
2018-01-08T00:06:07.015Z,92.24
2018-01-08T00:09:17.160Z,92.12
2018-01-08T00:12:27.205Z,92.23
2018-01-08T00:15:38.723Z,92.36
2018-01-08T00:18:55.680Z,92.11
2018-01-08T00:22:07.179Z,91.88
2018-01-08T00:25:21.576Z,92.02
2018-01-08T00:28:35.145Z,92.19
2018-01-08T00:31:46.820Z,92.25
2018-01-08T00:34:57.493Z,91.89
2018-01-08T00:38:08.435Z,92.16
2018-01-08T00:41:20.166Z,92.14
2018-01-08T00:44:31.451Z,92.10
2018-01-08T00:47:41.372Z,92.22
2018-01-08T00:50:49.778Z,92.18
2018-01-08T00:53:59.097Z,92.01
2018-01-08T00:57:09.819Z,92.00
2018-01-08T01:00:19.460Z,91.92
2018-01-08T01:03:29.490Z,91.92
2018-01-08T01:06:41.140Z,92.16
2018-01-08T01:09:50.420Z,92.05
2018-01-08T01:13:02.628Z,92.20
2018-01-08T01:16:14.214Z,91.76
2018-01-08T01:19:26.836Z,91.88
2018-01-08T01:22:36.919Z,91.95
2018-01-08T01:25:50.059Z,91.92
2018-01-08T01:29:02.012Z,92.08
2018-01-08T01:32:12.224Z,91.87
2018-01-08T01:35:24.446Z,92.11
2018-01-08T01:38:36.515Z,91.79
2018-01-08T01:41:47.271Z,91.75
2018-01-08T01:44:57.014Z,91.83
2018-01-08T01:48:07.870Z,91.88
2018-01-08T01:51:18.719Z,91.58
2018-01-08T01:54:30.317Z,91.87
2018-01-08T01:57:41.075Z,91.78
2018-01-08T02:00:56.268Z,91.81
2018-01-08T02:04:06.628Z,91.89
2018-01-08T02:07:18.282Z,91.74
2018-01-08T02:10:27.274Z,91.80
2018-01-08T02:13:39.487Z,91.75
2018-01-08T02:16:49.902Z,91.81
2018-01-08T02:20:00.362Z,91.74
2018-01-08T02:23:10.891Z,91.79
2018-01-08T02:26:20.967Z,91.69
2018-01-08T02:29:32.557Z,91.81
2018-01-08T02:32:43.613Z,91.63
2018-01-08T02:35:54.536Z,91.64
2018-01-08T02:39:05.594Z,91.69
2018-01-08T02:42:22.020Z,91.82
2018-01-08T02:45:33.355Z,91.85
2018-01-08T02:48:45.803Z,91.83
2018-01-08T02:51:57.415Z,91.87
2018-01-08T02:55:10.323Z,91.71
2018-01-08T02:58:22.188Z,91.80
2018-01-08T03:01:32.843Z,91.80
2018-01-08T03:04:43.637Z,91.77
2018-01-08T03:07:55.136Z,91.90
2018-01-08T03:11:07.547Z,91.78
2018-01-08T03:14:18.138Z,91.92
2018-01-08T03:20:51.017Z,91.81
2018-01-08T03:24:02.068Z,91.98
2018-01-08T03:27:11.959Z,91.87
2018-01-08T03:30:21.030Z,92.07
2018-01-08T03:33:33.480Z,91.96
2018-01-08T03:36:45.524Z,91.96
2018-01-08T03:39:57.554Z,91.88
2018-01-08T03:43:09.101Z,91.74
2018-01-08T03:46:20.905Z,91.85
2018-01-08T03:49:31.277Z,91.79
2018-01-08T03:52:42.149Z,91.83
2018-01-08T03:55:57.138Z,91.77
2018-01-08T03:59:08.022Z,91.95
2018-01-08T04:02:17.650Z,91.77
2018-01-08T04:05:30.158Z,91.71
2018-01-08T04:08:40.531Z,91.86
2018-01-08T04:11:50.987Z,91.79
2018-01-08T04:15:05.161Z,91.85
2018-01-08T04:18:15.696Z,91.49
2018-01-08T04:21:26.220Z,91.50
2018-01-08T04:24:39.400Z,91.50
2018-01-08T04:28:05.838Z,91.58
2018-01-08T04:31:17.317Z,91.60
2018-01-08T04:34:27.580Z,91.80
2018-01-08T04:37:38.262Z,91.77
2018-01-08T04:40:48.713Z,91.72
2018-01-08T04:43:59.151Z,91.83
2018-01-08T04:47:09.607Z,91.88
2018-01-08T04:50:22.100Z,91.83
2018-01-08T04:53:37.064Z,91.98
2018-01-08T04:56:48.330Z,91.90
2018-01-08T04:59:58.676Z,91.96
2018-01-08T05:03:10.665Z,91.87
2018-01-08T05:06:20.415Z,91.81
2018-01-08T05:09:31.089Z,91.79
2018-01-08T05:12:42.828Z,91.76
2018-01-08T05:15:51.777Z,91.87
2018-01-08T05:19:01.141Z,91.90
2018-01-08T05:22:12.557Z,91.55
2018-01-08T05:25:21.364Z,91.80
2018-01-08T05:28:31.509Z,91.81
2018-01-08T05:31:52.269Z,91.63
2018-01-08T05:35:21.975Z,91.58
2018-01-08T05:38:57.019Z,91.52
2018-01-08T05:42:07.006Z,91.63
2018-01-08T05:45:16.981Z,91.67
2018-01-08T05:48:26.811Z,91.58
2018-01-08T05:51:36.984Z,91.71
2018-01-08T05:54:46.449Z,91.81
2018-01-08T05:57:55.800Z,91.90
2018-01-08T06:01:06.157Z,91.71
2018-01-08T06:04:16.055Z,91.75
2018-01-08T06:07:24.804Z,91.97
2018-01-08T06:10:34.349Z,92.05
2018-01-08T06:13:43.642Z,92.07
2018-01-08T06:16:55.271Z,91.86
2018-01-08T06:20:05.731Z,91.80
2018-01-08T06:23:34.214Z,91.58
2018-01-08T06:26:47.254Z,91.74
2018-01-08T06:30:00.554Z,91.56
2018-01-08T06:33:08.517Z,91.76
2018-01-08T06:36:24.094Z,91.71
2018-01-08T06:39:35.277Z,91.64
2018-01-08T06:42:46.810Z,91.68
2018-01-08T06:45:57.444Z,91.65
2018-01-08T06:49:08.637Z,91.58
2018-01-08T06:52:18.820Z,91.62
2018-01-08T06:55:31.094Z,91.66
2018-01-08T06:58:44.740Z,91.73
2018-01-08T07:01:58.454Z,91.69
2018-01-08T07:05:11.446Z,91.63
2018-01-08T07:08:20.044Z,91.59
2018-01-08T07:11:30.721Z,91.61
2018-01-08T07:14:43.412Z,91.55
2018-01-08T07:17:54.960Z,91.62
2018-01-08T07:21:04.667Z,91.60
2018-01-08T07:24:16.891Z,91.54
2018-01-08T07:27:27.410Z,91.40
2018-01-08T07:30:38.309Z,91.67
2018-01-08T07:33:48.204Z,91.58
2018-01-08T07:36:59.809Z,91.47
2018-01-08T07:40:10.187Z,91.61
2018-01-08T07:43:20.908Z,91.50
2018-01-08T07:46:33.383Z,91.85
2018-01-08T07:49:45.556Z,91.56
2018-01-08T07:52:58.650Z,91.45
2018-01-08T07:56:08.601Z,91.71
2018-01-08T07:59:18.087Z,91.64
2018-01-08T08:09:48.215Z,91.49
2018-01-08T08:13:00.070Z,91.60
2018-01-08T08:16:08.974Z,91.57
2018-01-08T08:19:20.684Z,91.34
2018-01-08T08:22:29.949Z,91.54
2018-01-08T08:25:39.882Z,91.59
2018-01-08T08:28:50.925Z,91.75
2018-01-08T08:32:01.156Z,91.80
2018-01-08T08:35:12.735Z,91.74
2018-01-08T08:38:23.306Z,91.83
2018-01-08T08:41:37.705Z,91.99
2018-01-08T08:44:48.758Z,92.02
2018-01-08T08:47:58.300Z,92.10
2018-01-08T08:51:10.054Z,92.15
2018-01-08T08:54:21.835Z,92.15
2018-01-08T08:57:34.604Z,92.17
2018-01-08T09:00:45.832Z,92.29
2018-01-08T09:03:55.487Z,92.34
2018-01-08T09:07:07.724Z,92.23
2018-01-08T09:10:17.461Z,92.29
2018-01-08T09:13:28.771Z,92.16
2018-01-08T09:16:38.622Z,92.08
2018-01-08T09:19:48.800Z,92.18
2018-01-08T09:23:00.124Z,92.35
2018-01-08T09:26:12.401Z,92.20
2018-01-08T09:29:21.510Z,92.18
2018-01-08T09:32:33.726Z,92.30
2018-01-08T09:35:46.482Z,92.37
2018-01-08T09:38:55.504Z,92.29
2018-01-08T09:42:09.332Z,92.26
2018-01-08T09:45:20.252Z,92.18
2018-01-08T09:48:30.033Z,92.08
2018-01-08T09:51:47.375Z,91.97
2018-01-08T09:54:59.292Z,92.03
2018-01-08T09:58:12.925Z,92.12
2018-01-08T10:01:24.140Z,92.12
2018-01-08T10:04:44.151Z,91.85
2018-01-08T10:08:11.305Z,92.04
2018-01-08T10:11:36.038Z,92.13
2018-01-08T10:15:04.579Z,92.18
2018-01-08T10:18:29.158Z,92.05
2018-01-08T10:21:40.207Z,91.91
2018-01-08T10:24:50.886Z,92.00
2018-01-08T10:28:01.931Z,91.90
2018-01-08T10:31:14.229Z,92.00
2018-01-08T10:34:25.141Z,91.85
2018-01-08T10:37:36.093Z,91.89
2018-01-08T10:40:48.392Z,91.51
2018-01-08T10:44:05.035Z,91.42
2018-01-08T10:47:26.360Z,91.69
2018-01-08T10:51:02.648Z,91.83
2018-01-08T10:54:20.246Z,91.74
2018-01-08T10:57:31.410Z,91.86
2018-01-08T11:00:40.900Z,91.78
2018-01-08T11:04:13.128Z,91.60
2018-01-08T11:07:22.974Z,91.64
2018-01-08T11:10:42.272Z,91.43
2018-01-08T11:13:54.443Z,91.57
2018-01-08T11:17:07.185Z,91.32
2018-01-08T11:20:19.022Z,91.68
2018-01-08T11:23:28.823Z,91.65
2018-01-08T11:26:41.286Z,91.56
2018-01-08T11:29:54.091Z,91.46
2018-01-08T11:33:06.492Z,91.42
2018-01-08T11:36:16.090Z,91.43
2018-01-08T11:39:27.034Z,91.31
2018-01-08T11:42:37.394Z,91.38
2018-01-08T11:45:51.881Z,91.31
2018-01-08T11:49:00.854Z,91.31
2018-01-08T11:52:09.270Z,91.35
2018-01-08T11:55:32.236Z,91.26
2018-01-08T11:58:39.694Z,91.38
2018-01-08T12:01:49.281Z,91.19
2018-01-08T12:04:59.242Z,91.29
2018-01-08T12:08:07.933Z,91.35
2018-01-08T12:11:18.880Z,91.35
2018-01-08T12:14:28.613Z,91.33
2018-01-08T12:17:37.980Z,91.28
2018-01-08T12:20:45.226Z,91.09
2018-01-08T12:23:54.590Z,91.01
2018-01-08T12:27:05.423Z,91.09
2018-01-08T12:30:17.306Z,90.89
2018-01-08T12:33:28.290Z,90.94
2018-01-08T12:36:36.845Z,90.93
2018-01-08T12:39:48.490Z,90.98
2018-01-08T12:43:00.123Z,90.90
2018-01-08T12:46:11.909Z,90.71
2018-01-08T12:49:23.703Z,90.61
2018-01-08T12:52:35.086Z,90.79
2018-01-08T12:55:50.910Z,90.75
2018-01-08T12:59:02.821Z,90.72
2018-01-08T13:02:14.265Z,90.77
2018-01-08T13:05:24.862Z,90.79
2018-01-08T13:08:34.399Z,90.66
2018-01-08T13:11:46.544Z,90.65
2018-01-08T13:14:57.032Z,90.62
2018-01-08T13:18:06.271Z,90.54
2018-01-08T13:21:19.280Z,90.62
2018-01-08T13:24:30.179Z,90.58
2018-01-08T13:27:42.847Z,90.43
2018-01-08T13:30:54.264Z,90.40
2018-01-08T13:34:04.571Z,90.53
2018-01-08T13:37:19.640Z,90.57
2018-01-08T13:40:29.937Z,90.46
2018-01-08T13:43:39.356Z,90.38
2018-01-08T13:46:52.700Z,90.51
2018-01-08T13:50:02.971Z,90.60
2018-01-08T13:53:17.090Z,90.63
2018-01-08T13:56:35.569Z,90.67
2018-01-08T13:59:48.963Z,90.45
2018-01-08T14:03:06.624Z,90.34
2018-01-08T14:06:17.402Z,90.35
2018-01-08T14:09:30.743Z,90.40
2018-01-08T14:12:40.726Z,90.17
2018-01-08T14:15:50.239Z,90.39
2018-01-08T14:19:02.012Z,90.39
2018-01-08T14:22:13.193Z,89.95
2018-01-08T14:25:25.996Z,90.33
2018-01-08T14:28:36.621Z,90.66
2018-01-08T14:31:47.313Z,90.61
2018-01-08T14:34:56.641Z,90.51
2018-01-08T14:38:08.020Z,90.79
2018-01-08T14:41:19.767Z,90.75
2018-01-08T14:44:31.978Z,90.64
2018-01-08T14:47:42.019Z,90.87
2018-01-08T14:50:56.904Z,90.74
2018-01-08T14:54:06.946Z,90.73
2018-01-08T14:57:34.667Z,90.73
2018-01-08T15:00:45.811Z,90.80
2018-01-08T15:03:56.137Z,90.83
2018-01-08T15:07:06.995Z,90.59
2018-01-08T15:10:18.633Z,90.76
2018-01-08T15:13:28.903Z,90.85
2018-01-08T15:16:40.444Z,90.91
2018-01-08T15:19:52.467Z,90.78
2018-01-08T15:23:02.554Z,90.71
2018-01-08T15:26:14.928Z,90.69
2018-01-08T15:29:29.216Z,90.74
2018-01-08T15:32:39.869Z,90.77
2018-01-08T15:35:50.455Z,90.70
2018-01-08T15:39:00.483Z,90.84
2018-01-08T15:42:14.908Z,90.73
2018-01-08T15:45:24.432Z,90.74
2018-01-08T15:48:35.263Z,90.65
2018-01-08T15:51:45.658Z,90.43
2018-01-08T15:54:55.470Z,90.54
2018-01-08T15:58:06.452Z,90.62
2018-01-08T16:01:21.275Z,90.49
2018-01-08T16:04:31.450Z,90.84
2018-01-08T16:07:41.304Z,90.79
2018-01-08T16:10:52.505Z,90.58
2018-01-08T16:14:04.122Z,90.61
2018-01-08T16:17:13.147Z,90.44
2018-01-08T16:20:23.616Z,90.40
2018-01-08T16:23:33.319Z,90.36
2018-01-08T16:26:44.032Z,90.12
2018-01-08T16:29:55.276Z,90.28
2018-01-08T16:33:07.742Z,90.14
2018-01-08T16:36:16.938Z,90.00
2018-01-08T16:39:25.237Z,90.40
2018-01-08T16:42:33.407Z,90.05
2018-01-08T16:49:00.912Z,90.17
2018-01-08T16:52:07.757Z,90.01
2018-01-08T16:55:17.161Z,90.22
2018-01-08T16:58:26.939Z,90.09
2018-01-08T17:01:35.329Z,89.95
2018-01-08T17:04:44.080Z,90.19
2018-01-08T17:07:54.822Z,90.04
2018-01-08T17:11:02.914Z,90.42
2018-01-08T17:14:15.106Z,90.48
2018-01-08T17:17:24.377Z,90.36
2018-01-08T17:20:32.856Z,90.65
2018-01-08T17:23:42.002Z,90.78
2018-01-08T17:26:50.853Z,90.74
2018-01-08T17:30:01.354Z,90.51
2018-01-08T17:33:11.748Z,90.69
2018-01-08T17:36:21.025Z,90.41
2018-01-08T17:39:28.359Z,90.55
2018-01-08T17:42:36.887Z,90.33
2018-01-08T17:45:50.522Z,90.34
2018-01-08T17:48:59.878Z,90.49
2018-01-08T17:52:13.854Z,90.40
2018-01-08T17:55:25.217Z,90.71
2018-01-08T17:58:34.480Z,90.31
2018-01-08T18:01:47.246Z,90.39
2018-01-08T18:04:56.750Z,90.39
2018-01-08T18:08:10.473Z,90.20
2018-01-08T18:11:20.642Z,90.01
2018-01-08T18:14:32.318Z,90.35
2018-01-08T18:17:42.887Z,90.52
2018-01-08T18:20:55.018Z,90.33
2018-01-08T18:24:03.735Z,90.29
2018-01-08T18:27:24.648Z,90.08
2018-01-08T18:30:35.889Z,90.22
2018-01-08T18:33:46.818Z,90.23
2018-01-08T18:36:56.869Z,90.48
2018-01-08T18:40:05.193Z,90.61
2018-01-08T18:43:13.151Z,90.52
2018-01-08T18:46:30.089Z,90.24
2018-01-08T18:49:41.866Z,90.42
2018-01-08T18:52:53.156Z,90.43
2018-01-08T18:56:09.101Z,90.24
2018-01-08T18:59:29.918Z,90.37
2018-01-08T19:03:06.201Z,90.47
2018-01-08T19:06:41.627Z,90.62
2018-01-08T19:13:35.817Z,90.32
2018-01-08T19:16:58.575Z,90.38
2018-01-08T19:20:14.466Z,90.47
2018-01-08T19:23:34.889Z,90.52
2018-01-08T19:26:54.919Z,90.51
2018-01-08T19:30:12.034Z,90.36
2018-01-08T19:33:38.568Z,90.16
2018-01-08T19:37:01.047Z,90.16
2018-01-08T19:40:34.105Z,90.06
2018-01-08T19:47:41.098Z,90.13
2018-01-08T19:51:17.566Z,90.28
2018-01-08T19:54:59.426Z,90.37
2018-01-08T19:58:17.356Z,90.21
2018-01-08T20:01:40.155Z,89.93
2018-01-08T20:04:59.372Z,90.15
2018-01-08T20:08:22.882Z,89.92
2018-01-08T20:11:36.304Z,89.76
2018-01-08T20:15:02.675Z,89.93
2018-01-08T20:18:25.843Z,89.60
2018-01-08T20:21:36.693Z,89.71
2018-01-08T20:24:46.816Z,89.58
2018-01-08T20:27:54.979Z,89.84
2018-01-08T20:31:22.187Z,89.92
2018-01-08T20:34:49.931Z,89.72
2018-01-08T20:41:55.983Z,89.80
2018-01-08T20:45:20.116Z,89.78
2018-01-08T20:48:42.526Z,90.13
2018-01-08T20:52:06.734Z,90.01
2018-01-08T20:55:43.228Z,90.06
2018-01-08T20:59:03.127Z,89.78
2018-01-08T21:02:17.480Z,89.76
2018-01-08T21:05:29.647Z,89.72
2018-01-08T21:08:39.729Z,89.18
2018-01-08T21:12:02.972Z,89.24
2018-01-08T21:15:20.008Z,89.33
2018-01-08T21:18:30.776Z,89.46
2018-01-08T21:21:41.017Z,89.15
2018-01-08T21:24:52.675Z,89.21
2018-01-08T21:28:06.105Z,89.07
2018-01-08T21:31:20.682Z,89.34
2018-01-08T21:34:30.750Z,89.38
2018-01-08T21:37:40.225Z,89.46
2018-01-08T21:40:53.961Z,89.59
2018-01-08T21:44:03.821Z,89.46
2018-01-08T21:47:13.521Z,89.20
2018-01-08T21:50:23.381Z,89.28
2018-01-08T21:53:31.205Z,89.15
2018-01-08T21:56:39.507Z,88.82
2018-01-08T22:03:05.719Z,89.04
2018-01-08T22:06:16.927Z,88.80
2018-01-08T22:09:26.852Z,89.29
2018-01-08T22:12:38.217Z,88.46
2018-01-08T22:15:51.059Z,88.81
2018-01-08T22:19:06.293Z,88.81
2018-01-08T22:22:14.853Z,88.61
2018-01-08T22:25:24.475Z,88.72
2018-01-08T22:28:36.584Z,88.59
2018-01-08T22:31:48.143Z,87.95
2018-01-08T22:34:57.287Z,88.24
2018-01-08T22:38:09.601Z,87.84
2018-01-08T22:41:21.624Z,88.19
2018-01-08T22:44:30.049Z,88.23
2018-01-08T22:47:40.154Z,88.31
2018-01-08T22:50:51.314Z,88.23
2018-01-08T22:54:00.284Z,88.03
2018-01-08T22:57:10.947Z,88.08
2018-01-08T23:00:22.059Z,87.85
2018-01-08T23:03:32.383Z,87.62
2018-01-08T23:06:42.505Z,87.98
2018-01-08T23:09:55.392Z,87.60
2018-01-08T23:13:05.101Z,87.66
2018-01-08T23:16:14.176Z,87.66
2018-01-08T23:19:26.172Z,87.68
2018-01-08T23:22:40.270Z,87.77
2018-01-08T23:25:52.863Z,87.75
2018-01-08T23:29:06.157Z,87.85
2018-01-08T23:32:16.966Z,87.73
2018-01-08T23:35:25.762Z,87.66
2018-01-08T23:38:39.211Z,87.68
2018-01-08T23:41:55.401Z,87.47
2018-01-08T23:48:38.392Z,87.44
2018-01-08T23:51:52.119Z,87.90
2018-01-08T23:55:02.499Z,87.54
2018-01-08T23:58:11.997Z,87.45
